sensor_id;sensor_type;location;lat;lon;timestamp;pressure;altitude;pressure_sealevel;temperature;humidity
18652;BME280;9455;54.302;10.124;2022-09-09T00:00:24;100770.53;;;14.84;100.00
18652;BME280;9455;54.302;10.124;2022-09-09T00:03:00;100758.13;;;14.83;100.00
18652;BME280;9455;54.302;10.124;2022-09-09T00:05:32;100766.88;;;14.85;100.00
18652;BME280;9455;54.302;10.124;2022-09-09T00:08:03;100759.84;;;14.92;100.00
18652;BME280;9455;54.302;10.124;2022-09-09T00:10:34;100765.16;;;14.84;100.00
18652;BME280;9455;54.302;10.124;2022-09-09T00:13:14;100767.69;;;14.86;100.00
18652;BME280;9455;54.302;10.124;2022-09-09T00:15:48;100764.66;;;14.81;100.00
18652;BME280;9455;54.302;10.124;2022-09-09T00:18:23;100767.69;;;14.86;100.00
18652;BME280;9455;54.302;10.124;2022-09-09T00:20:55;100766.88;;;14.85;100.00
18652;BME280;9455;54.302;10.124;2022-09-09T00:23:25;100757.66;;;14.88;100.00
18652;BME280;9455;54.302;10.124;2022-09-09T00:26:02;100762.53;;;14.92;100.00
18652;BME280;9455;54.302;10.124;2022-09-09T00:28:32;100755.47;;;14.91;100.00
18652;BME280;9455;54.302;10.124;2022-09-09T00:31:07;100756.31;;;14.92;100.00
18652;BME280;9455;54.302;10.124;2022-09-09T00:33:37;100764.72;;;14.97;100.00
18652;BME280;9455;54.302;10.124;2022-09-09T00:36:10;100761.16;;;14.88;100.00
18652;BME280;9455;54.302;10.124;2022-09-09T00:38:42;100748.56;;;14.89;100.00
18652;BME280;9455;54.302;10.124;2022-09-09T00:41:17;100748.75;;;14.87;100.00
18652;BME280;9455;54.302;10.124;2022-09-09T00:43:52;100746.44;;;14.92;100.00
18652;BME280;9455;54.302;10.124;2022-09-09T00:46:52;100747.88;;;14.87;100.00
18652;BME280;9455;54.302;10.124;2022-09-09T00:49:32;100750.63;;;14.95;100.00
18652;BME280;9455;54.302;10.124;2022-09-09T00:52:12;100751.28;;;14.97;100.00
18652;BME280;9455;54.302;10.124;2022-09-09T00:54:46;100747.41;;;14.91;100.00
18652;BME280;9455;54.302;10.124;2022-09-09T00:57:25;100754.47;;;14.92;100.00
18652;BME280;9455;54.302;10.124;2022-09-09T00:59:57;100748.75;;;14.95;100.00
18652;BME280;9455;54.302;10.124;2022-09-09T01:02:29;100748.25;;;14.92;100.00
18652;BME280;9455;54.302;10.124;2022-09-09T01:05:03;100747.06;;;14.86;100.00
18652;BME280;9455;54.302;10.124;2022-09-09T01:07:31;100738.72;;;14.97;100.00
18652;BME280;9455;54.302;10.124;2022-09-09T01:09:58;100735.34;;;14.95;100.00
18652;BME280;9455;54.302;10.124;2022-09-09T01:12:35;100737.38;;;14.93;100.00
18652;BME280;9455;54.302;10.124;2022-09-09T01:15:10;100741.09;;;15.00;100.00
18652;BME280;9455;54.302;10.124;2022-09-09T01:17:46;100740.03;;;14.85;100.00
18652;BME280;9455;54.302;10.124;2022-09-09T01:20:19;100742.34;;;14.88;100.00
18652;BME280;9455;54.302;10.124;2022-09-09T01:22:56;100738.53;;;14.91;100.00
18652;BME280;9455;54.302;10.124;2022-09-09T01:25:56;100740.53;;;14.89;100.00
18652;BME280;9455;54.302;10.124;2022-09-09T01:28:29;100738.63;;;14.81;100.00
18652;BME280;9455;54.302;10.124;2022-09-09T01:30:56;100745.03;;;14.88;100.00
18652;BME280;9455;54.302;10.124;2022-09-09T01:33:23;100744.00;;;14.81;100.00
18652;BME280;9455;54.302;10.124;2022-09-09T01:35:53;100743.69;;;14.84;100.00
18652;BME280;9455;54.302;10.124;2022-09-09T01:38:22;100729.91;;;14.79;100.00
18652;BME280;9455;54.302;10.124;2022-09-09T01:40:51;100730.97;;;14.86;100.00
18652;BME280;9455;54.302;10.124;2022-09-09T01:43:19;100736.31;;;14.86;100.00
18652;BME280;9455;54.302;10.124;2022-09-09T01:45:49;100743.91;;;14.91;100.00
18652;BME280;9455;54.302;10.124;2022-09-09T01:48:18;100746.44;;;14.92;100.00
18652;BME280;9455;54.302;10.124;2022-09-09T01:50:45;100744.56;;;14.93;100.00
18652;BME280;9455;54.302;10.124;2022-09-09T01:53:12;100753.47;;;14.93;100.00
18652;BME280;9455;54.302;10.124;2022-09-09T01:55:47;100749.44;;;14.89;100.00
18652;BME280;9455;54.302;10.124;2022-09-09T01:58:25;100757.84;;;14.94;100.00
18652;BME280;9455;54.302;10.124;2022-09-09T02:01:02;100759.34;;;14.97;100.00
18652;BME280;9455;54.302;10.124;2022-09-09T02:03:32;100761.69;;;14.92;100.00
18652;BME280;9455;54.302;10.124;2022-09-09T02:06:05;100751.81;;;14.92;100.00
18652;BME280;9455;54.302;10.124;2022-09-09T02:08:41;100752.13;;;14.89;100.00
18652;BME280;9455;54.302;10.124;2022-09-09T02:11:11;100745.56;;;14.92;100.00
18652;BME280;9455;54.302;10.124;2022-09-09T02:13:42;100750.41;;;14.88;100.00
18652;BME280;9455;54.302;10.124;2022-09-09T02:16:13;100751.81;;;14.92;100.00
18652;BME280;9455;54.302;10.124;2022-09-09T02:18:45;100755.47;;;14.91;100.00
18652;BME280;9455;54.302;10.124;2022-09-09T02:21:13;100755.16;;;14.94;100.00
18652;BME280;9455;54.302;10.124;2022-09-09T02:23:42;100752.78;;;14.91;100.00
18652;BME280;9455;54.302;10.124;2022-09-09T02:26:11;100747.56;;;14.90;100.00
18652;BME280;9455;54.302;10.124;2022-09-09T02:28:46;100751.13;;;14.98;100.00
18652;BME280;9455;54.302;10.124;2022-09-09T02:31:14;100747.56;;;14.90;100.00
18652;BME280;9455;54.302;10.124;2022-09-09T02:33:46;100756.50;;;14.98;100.00
18652;BME280;9455;54.302;10.124;2022-09-09T02:36:15;100759.16;;;14.90;100.00
18652;BME280;9455;54.302;10.124;2022-09-09T02:38:45;100751.91;;;14.83;100.00
18652;BME280;9455;54.302;10.124;2022-09-09T02:41:15;100756.47;;;14.90;100.00
18652;BME280;9455;54.302;10.124;2022-09-09T02:43:42;100764.72;;;14.97;100.00
18652;BME280;9455;54.302;10.124;2022-09-09T02:46:21;100758.84;;;14.93;100.00
18652;BME280;9455;54.302;10.124;2022-09-09T02:48:58;100762.00;;;14.89;100.00
18652;BME280;9455;54.302;10.124;2022-09-09T02:51:33;100761.28;;;14.79;100.00
18652;BME280;9455;54.302;10.124;2022-09-09T02:54:10;100757.66;;;14.88;100.00
18652;BME280;9455;54.302;10.124;2022-09-09T02:56:47;100768.22;;;14.89;100.00
18652;BME280;9455;54.302;10.124;2022-09-09T02:59:16;100773.09;;;14.94;100.00
18652;BME280;9455;54.302;10.124;2022-09-09T03:01:44;100757.50;;;14.97;100.00
18652;BME280;9455;54.302;10.124;2022-09-09T03:04:11;100761.16;;;14.88;100.00
18652;BME280;9455;54.302;10.124;2022-09-09T03:06:37;100759.16;;;14.90;100.00
18652;BME280;9455;54.302;10.124;2022-09-09T03:09:04;100749.28;;;14.91;100.00
18652;BME280;9455;54.302;10.124;2022-09-09T03:11:30;100757.81;;;14.86;100.00
18652;BME280;9455;54.302;10.124;2022-09-09T03:13:57;100742.88;;;14.92;100.00
18652;BME280;9455;54.302;10.124;2022-09-09T03:16:24;100752.78;;;14.91;100.00
18652;BME280;9455;54.302;10.124;2022-09-09T03:18:52;100753.09;;;14.88;100.00
18652;BME280;9455;54.302;10.124;2022-09-09T03:21:18;100751.81;;;14.92;100.00
18652;BME280;9455;54.302;10.124;2022-09-09T03:23:45;100765.56;;;14.97;100.00
18652;BME280;9455;54.302;10.124;2022-09-09T03:26:11;100765.47;;;14.81;100.00
18652;BME280;9455;54.302;10.124;2022-09-09T03:28:40;100767.84;;;14.84;100.00
18652;BME280;9455;54.302;10.124;2022-09-09T03:31:07;100767.50;;;14.79;100.00
18652;BME280;9455;54.302;10.124;2022-09-09T03:33:35;100768.50;;;14.78;100.00
18652;BME280;9455;54.302;10.124;2022-09-09T03:36:04;100767.38;;;14.89;100.00
18652;BME280;9455;54.302;10.124;2022-09-09T03:38:30;100760.78;;;14.75;100.00
18652;BME280;9455;54.302;10.124;2022-09-09T03:40:57;100762.44;;;14.76;100.00
18652;BME280;9455;54.302;10.124;2022-09-09T03:43:25;100767.66;;;14.78;100.00
18652;BME280;9455;54.302;10.124;2022-09-09T03:45:53;100762.78;;;14.81;100.00
18652;BME280;9455;54.302;10.124;2022-09-09T03:48:22;100766.53;;;14.88;100.00
18652;BME280;9455;54.302;10.124;2022-09-09T03:50:51;100763.81;;;14.80;100.00
18652;BME280;9455;54.302;10.124;2022-09-09T03:53:21;100765.09;;;14.68;100.00
18652;BME280;9455;54.302;10.124;2022-09-09T03:55:50;100771.28;;;14.69;100.00
18652;BME280;9455;54.302;10.124;2022-09-09T03:58:20;100772.47;;;14.66;100.00
18652;BME280;9455;54.302;10.124;2022-09-09T04:00:53;100770.13;;;14.71;100.00
18652;BME280;9455;54.302;10.124;2022-09-09T04:03:20;100756.34;;;14.66;100.00
18652;BME280;9455;54.302;10.124;2022-09-09T04:05:48;100757.84;;;14.61;100.00
18652;BME280;9455;54.302;10.124;2022-09-09T04:08:15;100774.09;;;14.59;100.00
18652;BME280;9455;54.302;10.124;2022-09-09T04:10:44;100758.16;;;14.58;100.00
18652;BME280;9455;54.302;10.124;2022-09-09T04:13:12;100762.50;;;14.59;100.00
18652;BME280;9455;54.302;10.124;2022-09-09T04:15:41;100756.66;;;14.63;100.00
18652;BME280;9455;54.302;10.124;2022-09-09T04:18:08;100767.09;;;14.66;100.00
18652;BME280;9455;54.302;10.124;2022-09-09T04:20:35;100765.75;;;14.70;100.00
18652;BME280;9455;54.302;10.124;2022-09-09T04:23:01;100776.88;;;14.75;100.00
18652;BME280;9455;54.302;10.124;2022-09-09T04:25:28;100773.50;;;14.73;100.00
18652;BME280;9455;54.302;10.124;2022-09-09T04:27:57;100776.94;;;14.58;100.00
18652;BME280;9455;54.302;10.124;2022-09-09T04:30:24;100761.69;;;14.58;100.00
18652;BME280;9455;54.302;10.124;2022-09-09T04:32:52;100768.25;;;14.64;100.00
18652;BME280;9455;54.302;10.124;2022-09-09T04:35:19;100766.75;;;14.61;100.00
18652;BME280;9455;54.302;10.124;2022-09-09T04:37:46;100783.50;;;14.63;100.00
18652;BME280;9455;54.302;10.124;2022-09-09T04:40:13;100777.78;;;14.58;100.00
18652;BME280;9455;54.302;10.124;2022-09-09T04:42:40;100783.31;;;14.57;100.00
18652;BME280;9455;54.302;10.124;2022-09-09T04:45:10;100783.03;;;14.68;100.00
18652;BME280;9455;54.302;10.124;2022-09-09T04:47:38;100783.31;;;14.57;100.00
18652;BME280;9455;54.302;10.124;2022-09-09T04:50:06;100789.69;;;14.56;100.00
18652;BME280;9455;54.302;10.124;2022-09-09T04:52:33;100788.06;;;14.63;100.00
18652;BME280;9455;54.302;10.124;2022-09-09T04:55:00;100787.47;;;14.51;100.00
18652;BME280;9455;54.302;10.124;2022-09-09T04:57:26;100793.34;;;14.55;100.00
18652;BME280;9455;54.302;10.124;2022-09-09T04:59:53;100791.88;;;14.60;100.00
18652;BME280;9455;54.302;10.124;2022-09-09T05:02:21;100796.63;;;14.66;100.00
18652;BME280;9455;54.302;10.124;2022-09-09T05:04:48;100801.34;;;14.72;100.00
18652;BME280;9455;54.302;10.124;2022-09-09T05:07:14;100798.13;;;14.69;100.00
18652;BME280;9455;54.302;10.124;2022-09-09T05:09:41;100800.66;;;14.70;100.00
18652;BME280;9455;54.302;10.124;2022-09-09T05:12:08;100810.22;;;14.73;100.00
18652;BME280;9455;54.302;10.124;2022-09-09T05:14:35;100814.47;;;14.75;100.00
18652;BME280;9455;54.302;10.124;2022-09-09T05:17:02;100813.25;;;14.70;100.00
18652;BME280;9455;54.302;10.124;2022-09-09T05:19:30;100811.72;;;14.67;100.00
18652;BME280;9455;54.302;10.124;2022-09-09T05:21:57;100820.16;;;14.72;100.00
18652;BME280;9455;54.302;10.124;2022-09-09T05:24:23;100825.72;;;14.79;100.00
18652;BME280;9455;54.302;10.124;2022-09-09T05:26:50;100821.34;;;14.78;100.00
18652;BME280;9455;54.302;10.124;2022-09-09T05:29:17;100818.13;;;14.74;100.00
18652;BME280;9455;54.302;10.124;2022-09-09T05:31:44;100822.84;;;14.72;100.00
18652;BME280;9455;54.302;10.124;2022-09-09T05:34:11;100817.00;;;14.77;100.00
18652;BME280;9455;54.302;10.124;2022-09-09T05:36:38;100818.34;;;14.81;100.00
18652;BME280;9455;54.302;10.124;2022-09-09T05:39:05;100825.72;;;14.79;100.00
18652;BME280;9455;54.302;10.124;2022-09-09T05:41:31;100832.59;;;14.81;100.00
18652;BME280;9455;54.302;10.124;2022-09-09T05:43:58;100830.41;;;14.77;100.00
18652;BME280;9455;54.302;10.124;2022-09-09T05:46:26;100830.59;;;14.83;100.00
18652;BME280;9455;54.302;10.124;2022-09-09T05:48:53;100833.34;;;14.91;100.00
18652;BME280;9455;54.302;10.124;2022-09-09T05:51:21;100833.66;;;14.88;100.00
18652;BME280;9455;54.302;10.124;2022-09-09T05:53:50;100830.66;;;14.91;100.00
18652;BME280;9455;54.302;10.124;2022-09-09T05:56:19;100831.34;;;14.93;100.00
18652;BME280;9455;54.302;10.124;2022-09-09T05:58:47;100830.03;;;14.97;100.00
18652;BME280;9455;54.302;10.124;2022-09-09T06:01:16;100834.53;;;14.97;100.00
18652;BME280;9455;54.302;10.124;2022-09-09T06:03:44;100830.34;;;14.94;100.00
18652;BME280;9455;54.302;10.124;2022-09-09T06:06:12;100817.06;;;14.93;100.00
18652;BME280;9455;54.302;10.124;2022-09-09T06:08:41;100837.38;;;14.95;100.00
18652;BME280;9455;54.302;10.124;2022-09-09T06:11:12;100828.34;;;14.96;100.00
18652;BME280;9455;54.302;10.124;2022-09-09T06:13:39;100834.06;;;15.01;100.00
18652;BME280;9455;54.302;10.124;2022-09-09T06:16:08;100844.47;;;14.96;100.00
18652;BME280;9455;54.302;10.124;2022-09-09T06:18:36;100846.13;;;14.97;100.00
18652;BME280;9455;54.302;10.124;2022-09-09T06:21:05;100841.31;;;15.01;100.00
18652;BME280;9455;54.302;10.124;2022-09-09T06:23:32;100853.72;;;15.02;100.00
18652;BME280;9455;54.302;10.124;2022-09-09T06:26:02;100852.38;;;15.06;100.00
18652;BME280;9455;54.302;10.124;2022-09-09T06:28:30;100847.91;;;15.14;100.00
18652;BME280;9455;54.302;10.124;2022-09-09T06:30:57;100860.28;;;15.07;100.00
18652;BME280;9455;54.302;10.124;2022-09-09T06:33:24;100854.28;;;15.13;100.00
18652;BME280;9455;54.302;10.124;2022-09-09T06:35:51;100858.97;;;15.11;100.00
18652;BME280;9455;54.302;10.124;2022-09-09T06:38:18;100862.13;;;15.07;100.00
18652;BME280;9455;54.302;10.124;2022-09-09T06:40:51;100865.28;;;15.02;100.00
18652;BME280;9455;54.302;10.124;2022-09-09T06:43:18;100868.50;;;15.06;100.00
18652;BME280;9455;54.302;10.124;2022-09-09T06:45:54;100869.88;;;15.10;100.00
18652;BME280;9455;54.302;10.124;2022-09-09T06:48:20;100862.66;;;15.10;100.00
18652;BME280;9455;54.302;10.124;2022-09-09T06:50:47;100866.16;;;15.11;100.00
18652;BME280;9455;54.302;10.124;2022-09-09T06:53:16;100875.78;;;15.13;100.00
18652;BME280;9455;54.302;10.124;2022-09-09T06:55:44;100869.06;;;15.17;100.00
18652;BME280;9455;54.302;10.124;2022-09-09T06:58:11;100863.91;;;15.24;100.00
18652;BME280;9455;54.302;10.124;2022-09-09T07:00:37;100862.56;;;15.28;100.00
18652;BME280;9455;54.302;10.124;2022-09-09T07:03:05;100857.34;;;15.26;100.00
18652;BME280;9455;54.302;10.124;2022-09-09T07:05:32;100868.84;;;15.36;100.00
18652;BME280;9455;54.302;10.124;2022-09-09T07:07:58;100855.78;;;15.41;100.00
18652;BME280;9455;54.302;10.124;2022-09-09T07:10:25;100867.25;;;15.51;100.00
18652;BME280;9455;54.302;10.124;2022-09-09T07:12:52;100857.22;;;15.61;100.00
18652;BME280;9455;54.302;10.124;2022-09-09T07:15:19;100862.13;;;15.74;100.00
18652;BME280;9455;54.302;10.124;2022-09-09T07:17:48;100855.56;;;15.68;100.00
18652;BME280;9455;54.302;10.124;2022-09-09T07:20:16;100861.28;;;15.73;100.00
18652;BME280;9455;54.302;10.124;2022-09-09T07:22:42;100856.53;;;15.67;100.00
18652;BME280;9455;54.302;10.124;2022-09-09T07:25:09;100853.38;;;15.72;100.00
18652;BME280;9455;54.302;10.124;2022-09-09T07:27:36;100853.84;;;15.67;100.00
18652;BME280;9455;54.302;10.124;2022-09-09T07:30:03;100857.41;;;15.68;100.00
18652;BME280;9455;54.302;10.124;2022-09-09T07:32:30;100858.72;;;15.64;100.00
18652;BME280;9455;54.302;10.124;2022-09-09T07:34:56;100861.09;;;15.67;100.00
18652;BME280;9455;54.302;10.124;2022-09-09T07:37:25;100855.88;;;15.65;100.00
18652;BME280;9455;54.302;10.124;2022-09-09T07:39:51;100864.28;;;15.62;100.00
18652;BME280;9455;54.302;10.124;2022-09-09T07:42:18;100867.59;;;15.56;100.00
18652;BME280;9455;54.302;10.124;2022-09-09T07:44:44;100862.91;;;15.58;100.00
18652;BME280;9455;54.302;10.124;2022-09-09T07:47:11;100870.28;;;15.56;100.00
18652;BME280;9455;54.302;10.124;2022-09-09T07:49:38;100870.28;;;15.56;100.00
18652;BME280;9455;54.302;10.124;2022-09-09T07:52:04;100868.59;;;15.55;100.00
18652;BME280;9455;54.302;10.124;2022-09-09T07:54:32;100864.59;;;15.59;100.00
18652;BME280;9455;54.302;10.124;2022-09-09T07:56:59;100870.09;;;15.50;100.00
18652;BME280;9455;54.302;10.124;2022-09-09T07:59:25;100865.44;;;15.60;100.00
18652;BME280;9455;54.302;10.124;2022-09-09T08:01:55;100865.28;;;15.61;100.00
18652;BME280;9455;54.302;10.124;2022-09-09T08:04:23;100864.28;;;15.62;100.00
18652;BME280;9455;54.302;10.124;2022-09-09T08:06:51;100862.78;;;15.68;100.00
18652;BME280;9455;54.302;10.124;2022-09-09T08:09:19;100862.78;;;15.68;100.00
18652;BME280;9455;54.302;10.124;2022-09-09T08:11:48;100865.31;;;15.77;100.00
18652;BME280;9455;54.302;10.124;2022-09-09T08:14:14;100865.31;;;15.85;100.00
18652;BME280;9455;54.302;10.124;2022-09-09T08:16:42;100871.94;;;15.99;100.00
18652;BME280;9455;54.302;10.124;2022-09-09T08:19:09;100869.25;;;15.99;100.00
18652;BME280;9455;54.302;10.124;2022-09-09T08:21:38;100858.00;;;16.03;100.00
18652;BME280;9455;54.302;10.124;2022-09-09T08:24:06;100867.72;;;16.12;100.00
18652;BME280;9455;54.302;10.124;2022-09-09T08:26:34;100875.16;;;16.10;100.00
18652;BME280;9455;54.302;10.124;2022-09-09T08:29:04;100871.13;;;16.14;100.00
18652;BME280;9455;54.302;10.124;2022-09-09T08:31:33;100877.50;;;16.29;100.00
18652;BME280;9455;54.302;10.124;2022-09-09T08:34:00;100882.72;;;16.31;99.88
18652;BME280;9455;54.302;10.124;2022-09-09T08:36:30;100883.91;;;16.28;99.10
18652;BME280;9455;54.302;10.124;2022-09-09T08:38:58;100884.59;;;16.38;100.00
18652;BME280;9455;54.302;10.124;2022-09-09T08:41:58;100883.28;;;16.42;99.31
18652;BME280;9455;54.302;10.124;2022-09-09T08:44:36;100887.66;;;16.52;99.59
18652;BME280;9455;54.302;10.124;2022-09-09T08:47:11;100885.97;;;16.59;100.00
18652;BME280;9455;54.302;10.124;2022-09-09T08:49:55;100896.41;;;16.70;100.00
18652;BME280;9455;54.302;10.124;2022-09-09T08:52:28;100895.38;;;16.79;100.00
18652;BME280;9455;54.302;10.124;2022-09-09T08:55:03;100898.06;;;16.79;98.89
18652;BME280;9455;54.302;10.124;2022-09-09T08:57:37;100896.38;;;16.78;98.14
18652;BME280;9455;54.302;10.124;2022-09-09T09:00:09;100899.91;;;16.86;98.69
18652;BME280;9455;54.302;10.124;2022-09-09T09:02:42;100902.41;;;16.96;97.88
18652;BME280;9455;54.302;10.124;2022-09-09T09:05:19;100906.44;;;17.00;96.88
18652;BME280;9455;54.302;10.124;2022-09-09T09:07:58;100908.13;;;17.09;97.25
18652;BME280;9455;54.302;10.124;2022-09-09T09:10:44;100916.88;;;17.19;94.40
18652;BME280;9455;54.302;10.124;2022-09-09T09:13:15;100918.84;;;17.33;94.96
18652;BME280;9455;54.302;10.124;2022-09-09T09:15:47;100917.66;;;17.43;93.46
18652;BME280;9455;54.302;10.124;2022-09-09T09:18:16;100917.28;;;17.62;93.97
18652;BME280;9455;54.302;10.124;2022-09-09T09:20:50;100912.28;;;17.82;90.64
18652;BME280;9455;54.302;10.124;2022-09-09T09:23:21;100921.63;;;18.02;91.79
18652;BME280;9455;54.302;10.124;2022-09-09T09:25:48;100924.97;;;18.04;90.54
18652;BME280;9455;54.302;10.124;2022-09-09T09:28:18;100917.22;;;18.09;88.79
18652;BME280;9455;54.302;10.124;2022-09-09T09:30:49;100917.47;;;18.22;91.96
18652;BME280;9455;54.302;10.124;2022-09-09T09:33:20;100909.94;;;18.40;90.66
18652;BME280;9455;54.302;10.124;2022-09-09T09:35:49;100911.00;;;18.53;88.52
18652;BME280;9455;54.302;10.124;2022-09-09T09:38:18;100917.88;;;18.41;87.90
18652;BME280;9455;54.302;10.124;2022-09-09T09:40:49;100915.72;;;18.37;87.15
18652;BME280;9455;54.302;10.124;2022-09-09T09:43:20;100916.66;;;18.44;89.43
18652;BME280;9455;54.302;10.124;2022-09-09T09:45:49;100916.75;;;18.36;88.60
18652;BME280;9455;54.302;10.124;2022-09-09T09:48:15;100914.44;;;18.17;87.51
18652;BME280;9455;54.302;10.124;2022-09-09T09:50:49;100911.34;;;18.28;86.71
18652;BME280;9455;54.302;10.124;2022-09-09T09:53:21;100906.91;;;18.35;89.20
18652;BME280;9455;54.302;10.124;2022-09-09T09:55:53;100917.03;;;18.41;89.09
18652;BME280;9455;54.302;10.124;2022-09-09T09:58:21;100920.75;;;18.40;88.59
18652;BME280;9455;54.302;10.124;2022-09-09T10:00:49;100922.44;;;18.41;88.37
18652;BME280;9455;54.302;10.124;2022-09-09T10:03:27;100922.44;;;18.41;86.23
18652;BME280;9455;54.302;10.124;2022-09-09T10:05:54;100920.75;;;18.40;87.41
18652;BME280;9455;54.302;10.124;2022-09-09T10:08:23;100922.78;;;18.38;86.89
18652;BME280;9455;54.302;10.124;2022-09-09T10:11:02;100921.97;;;18.29;87.19
18652;BME280;9455;54.302;10.124;2022-09-09T10:13:36;100927.81;;;18.41;86.17
18652;BME280;9455;54.302;10.124;2022-09-09T10:16:23;100930.94;;;18.52;87.89
18652;BME280;9455;54.302;10.124;2022-09-09T10:18:59;100922.59;;;18.39;86.21
18652;BME280;9455;54.302;10.124;2022-09-09T10:21:42;100921.09;;;18.37;88.40
18652;BME280;9455;54.302;10.124;2022-09-09T10:24:33;100928.22;;;18.30;87.50
18652;BME280;9455;54.302;10.124;2022-09-09T10:27:10;100916.03;;;18.34;86.84
18652;BME280;9455;54.302;10.124;2022-09-09T10:32:46;100910.16;;;18.30;82.52
18652;BME280;9455;54.302;10.124;2022-09-09T10:35:26;100909.94;;;18.40;87.06
18652;BME280;9455;54.302;10.124;2022-09-09T10:38:11;100922.31;;;18.57;83.44
18652;BME280;9455;54.302;10.124;2022-09-09T10:40:43;100922.31;;;18.57;84.00
18652;BME280;9455;54.302;10.124;2022-09-09T10:43:19;100911.97;;;18.38;86.22
18652;BME280;9455;54.302;10.124;2022-09-09T10:45:58;100916.31;;;18.47;84.71
18652;BME280;9455;54.302;10.124;2022-09-09T10:48:38;100919.97;;;18.54;80.94
18652;BME280;9455;54.302;10.124;2022-09-09T10:51:21;100913.69;;;18.39;81.73
18652;BME280;9455;54.302;10.124;2022-09-09T10:54:05;100920.56;;;18.64;85.03
18652;BME280;9455;54.302;10.124;2022-09-09T10:56:38;100926.34;;;18.61;83.38
18652;BME280;9455;54.302;10.124;2022-09-09T10:59:10;100923.19;;;18.72;81.83
18652;BME280;9455;54.302;10.124;2022-09-09T11:01:41;100916.16;;;18.85;84.88
18652;BME280;9455;54.302;10.124;2022-09-09T11:04:15;100910.97;;;18.98;83.58
18652;BME280;9455;54.302;10.124;2022-09-09T11:06:46;100920.31;;;19.11;80.31
18652;BME280;9455;54.302;10.124;2022-09-09T11:09:17;100915.38;;;19.14;83.10
18652;BME280;9455;54.302;10.124;2022-09-09T11:11:49;100928.81;;;19.22;79.30
18652;BME280;9455;54.302;10.124;2022-09-09T11:14:22;100925.19;;;19.30;79.82
18652;BME280;9455;54.302;10.124;2022-09-09T11:16:56;100927.72;;;19.31;82.71
18652;BME280;9455;54.302;10.124;2022-09-09T11:19:30;100925.78;;;19.40;77.68
18652;BME280;9455;54.302;10.124;2022-09-09T11:22:00;100922.72;;;19.57;78.81
18652;BME280;9455;54.302;10.124;2022-09-09T11:24:33;100921.19;;;19.84;80.03
18652;BME280;9455;54.302;10.124;2022-09-09T11:27:06;100922.75;;;19.93;73.34
18652;BME280;9455;54.302;10.124;2022-09-09T11:33:15;100931.22;;;20.04;73.76
18652;BME280;9455;54.302;10.124;2022-09-09T11:35:57;100935.81;;;20.04;72.25
18652;BME280;9455;54.302;10.124;2022-09-09T11:38:32;100935.75;;;19.83;69.85
18652;BME280;9455;54.302;10.124;2022-09-09T11:41:07;100931.81;;;19.85;70.27
18652;BME280;9455;54.302;10.124;2022-09-09T11:43:39;100932.25;;;19.89;69.66
18652;BME280;9455;54.302;10.124;2022-09-09T11:46:08;100924.81;;;19.91;71.17
18652;BME280;9455;54.302;10.124;2022-09-09T11:48:36;100930.91;;;19.78;71.33
18652;BME280;9455;54.302;10.124;2022-09-09T11:51:06;100932.81;;;19.84;71.08
18652;BME280;9455;54.302;10.124;2022-09-09T11:53:34;100932.44;;;20.02;72.25
18652;BME280;9455;54.302;10.124;2022-09-09T11:56:25;100933.44;;;20.15;72.17
18652;BME280;9455;54.302;10.124;2022-09-09T11:58:58;100937.22;;;20.35;69.22
18652;BME280;9455;54.302;10.124;2022-09-09T12:01:33;100939.31;;;20.54;71.36
18652;BME280;9455;54.302;10.124;2022-09-09T12:04:09;100937.25;;;20.56;71.69
18652;BME280;9455;54.302;10.124;2022-09-09T12:06:44;100944.75;;;20.54;70.80
18652;BME280;9455;54.302;10.124;2022-09-09T12:09:20;100948.22;;;20.69;69.50
18652;BME280;9455;54.302;10.124;2022-09-09T12:11:48;100943.19;;;20.66;68.61
18652;BME280;9455;54.302;10.124;2022-09-09T12:14:23;100937.50;;;20.82;71.13
18652;BME280;9455;54.302;10.124;2022-09-09T12:17:09;100944.22;;;20.86;67.82
18652;BME280;9455;54.302;10.124;2022-09-09T12:19:36;100939.72;;;20.93;65.47
18652;BME280;9455;54.302;10.124;2022-09-09T12:22:09;100941.72;;;20.91;69.35
18652;BME280;9455;54.302;10.124;2022-09-09T12:24:46;100943.31;;;20.79;69.10
18652;BME280;9455;54.302;10.124;2022-09-09T12:27:20;100946.25;;;20.84;66.34
18652;BME280;9455;54.302;10.124;2022-09-09T12:29:55;100939.81;;;20.85;67.85
18652;BME280;9455;54.302;10.124;2022-09-09T12:32:25;100937.50;;;20.82;67.75
18652;BME280;9455;54.302;10.124;2022-09-09T12:34:55;100939.13;;;20.77;67.26
18652;BME280;9455;54.302;10.124;2022-09-09T12:37:32;100946.91;;;20.86;67.22
18652;BME280;9455;54.302;10.124;2022-09-09T12:40:02;100940.72;;;20.92;65.79
18652;BME280;9455;54.302;10.124;2022-09-09T12:42:30;100933.75;;;21.04;64.40
18652;BME280;9455;54.302;10.124;2022-09-09T12:44:59;100936.72;;;20.88;64.03
18652;BME280;9455;54.302;10.124;2022-09-09T12:47:34;100939.16;;;20.83;66.10
18652;BME280;9455;54.302;10.124;2022-09-09T12:50:03;100940.94;;;20.49;67.25
18652;BME280;9455;54.302;10.124;2022-09-09T12:52:34;100946.66;;;20.39;69.17
18652;BME280;9455;54.302;10.124;2022-09-09T12:55:05;100933.44;;;20.15;73.35
18652;BME280;9455;54.302;10.124;2022-09-09T12:57:36;100934.53;;;20.35;70.75
18652;BME280;9455;54.302;10.124;2022-09-09T13:00:06;100924.09;;;20.74;68.88
18652;BME280;9455;54.302;10.124;2022-09-09T13:02:33;100926.66;;;21.03;68.99
18652;BME280;9455;54.302;10.124;2022-09-09T13:05:08;100919.38;;;21.04;62.73
18652;BME280;9455;54.302;10.124;2022-09-09T13:07:41;100919.03;;;21.13;64.00